Time;durP1;ratioP1;P1;durP2;ratioP2;P2;SDS_P1;SDS_P2;PMS_P1;PMS_P2;Temp;Humidity;BMP_temperature;BMP_pressure;BME280_temperature;BME280_humidity;BME280_pressure;Samples;Min_cycle;Max_cycle;Signal;HPM_P1;HPM_P2
2021/06/21 00:00:14;0.00;0.00;0.62;0.00;0.00;0.62;3.50;3.20;;;30.00;35.20;;;;;;2253475;61;20592;-75
2021/06/21 00:02:42;0.00;0.00;0.62;0.00;0.00;0.62;4.13;3.67;;;30.00;35.20;;;;;;2254154;61;20617;-74
2021/06/21 00:05:14;0.00;0.00;0.62;0.00;0.00;0.62;4.57;3.47;;;30.00;35.20;;;;;;2253298;61;20357;-68
2021/06/21 00:07:40;0.00;0.00;0.62;0.00;0.00;0.62;3.70;3.30;;;29.90;35.20;;;;;;2254030;61;20368;-70
2021/06/21 00:10:10;0.00;0.00;0.62;0.00;0.00;0.62;5.47;3.60;;;29.90;35.10;;;;;;2253697;61;20357;-74
2021/06/21 00:12:39;0.00;0.00;0.62;0.00;0.00;0.62;4.10;3.67;;;29.90;35.10;;;;;;2252840;61;20386;-65
2021/06/21 00:15:08;0.00;0.00;0.62;0.00;0.00;0.62;3.80;3.40;;;29.90;35.00;;;;;;2253896;61;20609;-73
2021/06/21 00:17:34;0.00;0.00;0.62;0.00;0.00;0.62;4.30;2.87;;;29.90;35.10;;;;;;2253410;61;20360;-69
2021/06/21 00:20:05;0.00;0.00;0.62;0.00;0.00;0.62;3.93;2.93;;;29.90;35.10;;;;;;2253220;61;20368;-69
2021/06/21 00:22:34;0.00;0.00;0.62;0.00;0.00;0.62;3.20;2.90;;;29.90;35.20;;;;;;2253463;61;20468;-66
2021/06/21 00:25:00;0.00;0.00;0.62;0.00;0.00;0.62;3.40;3.03;;;29.90;35.20;;;;;;2253650;61;20365;-70
2021/06/21 00:27:27;0.00;0.00;0.62;0.00;0.00;0.62;3.77;3.13;;;29.90;35.20;;;;;;2253321;61;20352;-70
2021/06/21 00:29:54;0.00;0.00;0.62;0.00;0.00;0.62;4.93;2.80;;;29.90;35.20;;;;;;2253278;61;20464;-70
2021/06/21 00:32:21;0.00;0.00;0.62;0.00;0.00;0.62;4.00;3.17;;;29.90;35.20;;;;;;2253675;61;20614;-68
2021/06/21 00:34:47;0.00;0.00;0.62;0.00;0.00;0.62;3.90;3.30;;;29.90;35.20;;;;;;2253280;61;20361;-68
2021/06/21 00:37:14;0.00;0.00;0.62;0.00;0.00;0.62;3.57;2.80;;;29.80;35.10;;;;;;2253709;61;20776;-70
2021/06/21 00:39:42;0.00;0.00;0.62;0.00;0.00;0.62;3.80;3.20;;;29.80;35.20;;;;;;2253073;61;20377;-71
2021/06/21 00:42:10;0.00;0.00;0.62;0.00;0.00;0.62;4.17;3.70;;;29.80;35.20;;;;;;2252575;61;20389;-72
2021/06/21 00:44:37;0.00;0.00;0.62;0.00;0.00;0.62;3.67;3.37;;;29.80;35.30;;;;;;2250122;61;20360;-75
2021/06/21 00:47:04;0.00;0.00;0.62;0.00;0.00;0.62;5.30;3.10;;;29.80;35.20;;;;;;2253837;61;20388;-76
2021/06/21 00:49:30;0.00;0.00;0.62;0.00;0.00;0.62;4.10;3.63;;;29.80;35.30;;;;;;2253203;61;20367;-75
2021/06/21 00:51:57;0.00;0.00;0.62;0.00;0.00;0.62;5.30;3.90;;;29.70;35.40;;;;;;2249995;61;20412;-74
2021/06/21 00:54:24;0.00;0.00;0.62;0.00;0.00;0.62;3.03;2.73;;;29.70;35.50;;;;;;2253785;61;20356;-69
2021/06/21 00:56:52;0.00;0.00;0.62;0.00;0.00;0.62;3.47;3.07;;;29.70;35.40;;;;;;2251828;61;20464;-68
2021/06/21 00:59:18;0.00;0.00;0.62;0.00;0.00;0.62;5.63;3.47;;;29.70;35.50;;;;;;2252831;61;20705;-68
2021/06/21 01:01:45;0.00;0.00;0.62;0.00;0.00;0.62;3.50;2.70;;;29.70;35.50;;;;;;2253435;61;20377;-68
2021/06/21 01:04:12;0.00;0.00;0.62;0.00;0.00;0.62;5.10;3.23;;;29.70;35.50;;;;;;2252911;61;20527;-67
2021/06/21 01:06:39;0.00;0.00;0.62;0.00;0.00;0.62;3.63;2.80;;;29.70;35.60;;;;;;2253289;61;20682;-69
2021/06/21 01:09:05;0.00;0.00;0.62;0.00;0.00;0.62;4.80;3.13;;;29.70;35.60;;;;;;2253541;61;20364;-68
2021/06/21 01:11:48;0.00;0.00;0.62;0.00;0.00;0.62;4.63;3.30;;;29.70;35.70;;;;;;2252952;61;20380;-68
2021/06/21 01:14:23;0.00;0.00;0.62;0.00;0.00;0.62;3.03;2.60;;;29.70;35.70;;;;;;2253542;61;20360;-68
2021/06/21 01:16:56;0.00;0.00;0.62;0.00;0.00;0.62;3.27;2.97;;;29.70;35.70;;;;;;2253527;61;20388;-67
2021/06/21 01:20:05;0.00;0.00;0.62;0.00;0.00;0.62;4.80;3.17;;;29.70;36.30;;;;;;2252870;61;20353;-68
2021/06/21 01:23:02;0.00;0.00;0.62;0.00;0.00;0.62;3.10;2.70;;;29.70;35.80;;;;;;2253495;61;20426;-68
2021/06/21 01:25:34;0.00;0.00;0.62;0.00;0.00;0.62;3.67;2.70;;;29.70;35.80;;;;;;2253016;61;20357;-67
2021/06/21 01:28:05;0.00;0.00;0.62;0.00;0.00;0.62;4.30;2.90;;;29.70;35.80;;;;;;2252690;61;20399;-67
2021/06/21 01:30:51;0.00;0.00;0.62;0.00;0.00;0.62;3.50;2.87;;;29.70;35.90;;;;;;2253748;61;20349;-67
2021/06/21 01:33:21;0.00;0.00;0.62;0.00;0.00;0.62;3.23;2.93;;;29.70;35.90;;;;;;2253393;61;20361;-67
2021/06/21 01:35:53;0.00;0.00;0.62;0.00;0.00;0.62;5.00;3.03;;;29.70;35.80;;;;;;2253895;61;20388;-67
2021/06/21 01:38:27;0.00;0.00;0.62;0.00;0.00;0.62;3.70;3.33;;;29.70;35.90;;;;;;2254065;61;20372;-68
2021/06/21 01:40:58;0.00;0.00;0.62;0.00;0.00;0.62;4.17;2.77;;;29.70;36.00;;;;;;2253696;61;20379;-69
2021/06/21 01:43:29;0.00;0.00;0.62;0.00;0.00;0.62;3.63;3.30;;;29.70;35.90;;;;;;2253898;61;20360;-67
2021/06/21 01:45:59;0.00;0.00;0.62;0.00;0.00;0.62;5.63;3.20;;;29.70;36.00;;;;;;2254084;61;20565;-66
2021/06/21 01:48:30;0.00;0.00;0.62;0.00;0.00;0.62;7.23;3.07;;;29.70;36.20;;;;;;2253313;61;20352;-67
2021/06/21 01:51:01;0.00;0.00;0.62;0.00;0.00;0.62;5.10;3.03;;;29.70;36.30;;;;;;2253287;61;20376;-67
2021/06/21 01:53:33;0.00;0.00;0.62;0.00;0.00;0.62;3.30;3.00;;;29.70;36.30;;;;;;2254119;61;20705;-66
2021/06/21 01:56:07;0.00;0.00;0.62;0.00;0.00;0.62;5.23;3.07;;;29.70;36.40;;;;;;2253094;61;20381;-67
2021/06/21 01:58:37;0.00;0.00;0.62;0.00;0.00;0.62;4.33;3.50;;;29.70;36.40;;;;;;2254028;61;20356;-67
2021/06/21 02:01:14;0.00;0.00;0.62;0.00;0.00;0.62;4.37;3.03;;;29.70;36.30;;;;;;2254021;61;20372;-66
2021/06/21 02:03:44;0.00;0.00;0.62;0.00;0.00;0.62;3.73;3.17;;;29.70;36.40;;;;;;2253442;61;20367;-68
2021/06/21 02:06:11;0.00;0.00;0.62;0.00;0.00;0.62;3.70;3.20;;;29.60;36.50;;;;;;2253952;61;20428;-68
2021/06/21 02:08:40;0.00;0.00;0.62;0.00;0.00;0.62;4.17;2.90;;;29.60;36.60;;;;;;2254101;61;20361;-67
2021/06/21 02:11:08;0.00;0.00;0.62;0.00;0.00;0.62;3.00;2.70;;;29.70;36.70;;;;;;2253283;61;20472;-67
2021/06/21 02:13:35;0.00;0.00;0.62;0.00;0.00;0.62;4.30;3.17;;;29.60;36.70;;;;;;2254087;61;20558;-68
2021/06/21 02:16:03;0.00;0.00;0.62;0.00;0.00;0.62;2.87;2.63;;;29.70;36.70;;;;;;2253928;61;20384;-69
2021/06/21 02:18:31;0.00;0.00;0.62;0.00;0.00;0.62;5.67;3.50;;;29.60;36.70;;;;;;2252901;61;20593;-67
2021/06/21 02:20:59;0.00;0.00;0.62;0.00;0.00;0.62;3.30;2.93;;;29.60;36.90;;;;;;2253900;61;20377;-67
2021/06/21 02:23:25;0.00;0.00;0.62;0.00;0.00;0.62;5.27;3.40;;;29.60;36.90;;;;;;2253992;61;20365;-69
2021/06/21 02:25:57;0.00;0.00;0.62;0.00;0.00;0.62;3.27;2.97;;;29.60;36.90;;;;;;2253323;61;20765;-68
2021/06/21 02:28:27;0.00;0.00;0.62;0.00;0.00;0.62;3.30;3.00;;;29.60;37.00;;;;;;2253988;61;20568;-68
2021/06/21 02:30:56;0.00;0.00;0.62;0.00;0.00;0.62;3.67;3.20;;;29.60;37.00;;;;;;2253750;61;20388;-68
2021/06/21 02:33:22;0.00;0.00;0.62;0.00;0.00;0.62;5.63;3.20;;;29.60;37.00;;;;;;2253414;61;20831;-66
2021/06/21 02:35:49;0.00;0.00;0.62;0.00;0.00;0.62;4.77;3.30;;;29.60;37.00;;;;;;2253967;61;20609;-67
2021/06/21 02:38:18;0.00;0.00;0.62;0.00;0.00;0.62;4.20;3.00;;;29.60;37.20;;;;;;2253863;61;20684;-69
2021/06/21 02:40:44;0.00;0.00;0.62;0.00;0.00;0.62;4.33;3.13;;;29.60;37.10;;;;;;2253189;61;20368;-67
2021/06/21 02:43:11;0.00;0.00;0.62;0.00;0.00;0.62;4.40;3.33;;;29.60;37.20;;;;;;2253986;61;20376;-67
2021/06/21 02:45:38;0.00;0.00;0.62;0.00;0.00;0.62;4.80;3.00;;;29.50;37.20;;;;;;2253807;61;20593;-67
2021/06/21 02:48:08;0.00;0.00;0.62;0.00;0.00;0.62;3.30;3.00;;;29.50;37.20;;;;;;2253362;61;20380;-68
2021/06/21 02:50:37;0.00;0.00;0.62;0.00;0.00;0.62;4.73;3.30;;;29.50;37.20;;;;;;2253865;61;20364;-67
2021/06/21 02:53:19;0.00;0.00;0.62;0.00;0.00;0.62;4.10;3.20;;;29.50;37.30;;;;;;2253894;61;20364;-67
2021/06/21 02:55:55;0.00;0.00;0.62;0.00;0.00;0.62;3.57;2.90;;;29.50;37.30;;;;;;2252929;61;20610;-67
2021/06/21 02:58:26;0.00;0.00;0.62;0.00;0.00;0.62;3.87;3.13;;;29.50;37.30;;;;;;2253902;61;20697;-67
2021/06/21 03:00:54;0.00;0.00;0.62;0.00;0.00;0.62;3.87;3.50;;;29.50;37.30;;;;;;2253946;61;20360;-67
2021/06/21 03:03:24;0.00;0.00;0.62;0.00;0.00;0.62;3.40;2.90;;;29.50;38.00;;;;;;2253416;61;20380;-66
2021/06/21 03:05:52;0.00;0.00;0.62;0.00;0.00;0.62;3.90;2.90;;;29.50;37.40;;;;;;2253738;61;20460;-68
2021/06/21 03:08:20;0.00;0.00;0.62;0.00;0.00;0.62;4.77;2.97;;;29.50;37.30;;;;;;2253889;61;20357;-69
2021/06/21 03:10:49;0.00;0.00;0.62;0.00;0.00;0.62;6.50;3.57;;;29.50;37.30;;;;;;2253231;61;20365;-69
2021/06/21 03:13:20;0.00;0.00;0.62;0.00;0.00;0.62;4.40;3.50;;;29.50;37.30;;;;;;2253827;61;20367;-68
2021/06/21 03:15:49;0.00;0.00;0.62;0.00;0.00;0.62;4.63;3.73;;;29.50;37.40;;;;;;2253759;61;20381;-68
2021/06/21 03:18:20;0.00;0.00;0.62;0.00;0.00;0.62;4.30;3.37;;;29.50;37.30;;;;;;2253267;61;20361;-68
2021/06/21 03:20:50;0.00;0.00;0.62;0.00;0.00;0.62;3.93;3.30;;;29.50;37.30;;;;;;2253671;61;20464;-68
2021/06/21 03:23:22;0.00;0.00;0.62;0.00;0.00;0.62;4.10;3.27;;;29.50;37.20;;;;;;2253696;61;20364;-68
2021/06/21 03:25:51;0.00;0.00;0.62;0.00;0.00;0.62;4.80;3.30;;;29.50;37.40;;;;;;2253496;61;20367;-67
2021/06/21 03:28:18;0.00;0.00;0.62;0.00;0.00;0.62;3.40;3.10;;;29.50;37.30;;;;;;2253723;61;20360;-68
2021/06/21 03:30:50;0.00;0.00;0.62;0.00;0.00;0.62;3.43;3.13;;;29.50;37.20;;;;;;2253388;61;20360;-67
2021/06/21 03:33:17;0.00;0.00;0.62;0.00;0.00;0.62;3.60;3.30;;;29.50;37.20;;;;;;2253544;61;20701;-68
2021/06/21 03:35:43;0.00;0.00;0.62;0.00;0.00;0.62;4.53;3.13;;;29.50;37.30;;;;;;2253645;61;20591;-68
2021/06/21 03:38:12;0.00;0.00;0.62;0.00;0.00;0.62;4.23;3.83;;;29.50;37.40;;;;;;2253379;61;20363;-67
2021/06/21 03:40:40;0.00;0.00;0.62;0.00;0.00;0.62;5.87;3.53;;;29.50;37.40;;;;;;2253374;61;20456;-68
2021/06/21 03:43:06;0.00;0.00;0.62;0.00;0.00;0.62;4.27;2.90;;;29.50;37.40;;;;;;2253725;61;20582;-68
2021/06/21 03:45:33;0.00;0.00;0.62;0.00;0.00;0.62;3.30;3.00;;;29.50;37.30;;;;;;2253282;61;20716;-67
2021/06/21 03:48:00;0.00;0.00;0.62;0.00;0.00;0.62;3.43;2.83;;;29.50;37.30;;;;;;2253467;61;20679;-67
2021/06/21 03:50:26;0.00;0.00;0.62;0.00;0.00;0.62;4.80;4.00;;;29.50;37.30;;;;;;2253084;61;20357;-68
2021/06/21 03:52:53;0.00;0.00;0.62;0.00;0.00;0.62;3.83;3.37;;;29.50;37.30;;;;;;2253400;61;20738;-68
2021/06/21 03:55:19;0.00;0.00;0.62;0.00;0.00;0.62;2.97;2.77;;;29.50;37.40;;;;;;2253308;61;20387;-68
2021/06/21 03:57:50;0.00;0.00;0.62;0.00;0.00;0.62;4.20;3.30;;;29.50;37.50;;;;;;2253532;61;20384;-68
2021/06/21 04:00:20;0.00;0.00;0.62;0.00;0.00;0.62;4.23;2.47;;;29.50;37.40;;;;;;2253513;61;20757;-68
2021/06/21 04:02:47;0.00;0.00;0.62;0.00;0.00;0.62;3.90;2.30;;;29.50;37.50;;;;;;2253286;61;20377;-67
2021/06/21 04:05:15;0.00;0.00;0.62;0.00;0.00;0.62;4.07;3.07;;;29.50;37.50;;;;;;2253091;61;20367;-66
2021/06/21 04:07:43;0.00;0.00;0.62;0.00;0.00;0.62;3.70;3.13;;;29.50;37.60;;;;;;2253194;61;20543;-67
2021/06/21 04:10:13;0.00;0.00;0.62;0.00;0.00;0.62;3.80;3.30;;;29.50;37.60;;;;;;2253255;61;20589;-67
2021/06/21 04:12:41;0.00;0.00;0.62;0.00;0.00;0.62;3.60;3.07;;;29.50;37.70;;;;;;2253368;61;20419;-67
2021/06/21 04:15:12;0.00;0.00;0.62;0.00;0.00;0.62;3.20;2.80;;;29.50;37.60;;;;;;2253495;61;20629;-67
2021/06/21 04:17:39;0.00;0.00;0.62;0.00;0.00;0.62;3.33;2.87;;;29.40;37.80;;;;;;2253292;61;20783;-66
2021/06/21 04:20:10;0.00;0.00;0.62;0.00;0.00;0.62;3.90;2.83;;;29.50;37.90;;;;;;2253569;61;20361;-67
2021/06/21 04:22:38;0.00;0.00;0.62;0.00;0.00;0.62;7.00;3.57;;;29.40;38.00;;;;;;2253276;61;20380;-67
2021/06/21 04:25:07;0.00;0.00;0.62;0.00;0.00;0.62;3.40;3.00;;;29.40;38.00;;;;;;2253462;61;20356;-67
2021/06/21 04:27:34;0.00;0.00;0.62;0.00;0.00;0.62;3.00;2.80;;;29.40;38.10;;;;;;2253520;61;20357;-68
2021/06/21 04:30:00;0.00;0.00;0.62;0.00;0.00;0.62;2.80;2.60;;;29.40;38.10;;;;;;2253173;61;20581;-68
2021/06/21 04:32:28;0.00;0.00;0.62;0.00;0.00;0.62;3.70;3.03;;;29.40;38.20;;;;;;2253365;61;20377;-70
2021/06/21 04:34:54;0.00;0.00;0.62;0.00;0.00;0.62;2.73;2.53;;;29.40;38.30;;;;;;2253560;61;20361;-69
2021/06/21 04:37:21;0.00;0.00;0.62;0.00;0.00;0.62;3.30;2.40;;;29.30;38.10;;;;;;2253342;61;20646;-70
2021/06/21 04:39:47;0.00;0.00;0.62;0.00;0.00;0.62;2.57;2.33;;;29.30;38.00;;;;;;2252972;61;20371;-69
2021/06/21 04:42:14;0.00;0.00;0.62;0.00;0.00;0.62;2.73;2.23;;;29.30;38.00;;;;;;2253554;61;20377;-69
2021/06/21 04:44:41;0.00;0.00;0.62;0.00;0.00;0.62;3.07;2.60;;;29.30;38.00;;;;;;2253458;61;20355;-68
2021/06/21 04:47:07;0.00;0.00;0.62;0.00;0.00;0.62;2.93;2.70;;;29.30;37.90;;;;;;2253171;61;20709;-74
2021/06/21 04:49:36;0.00;0.00;0.62;0.00;0.00;0.62;2.13;1.93;;;29.30;38.00;;;;;;2253477;61;20361;-65
2021/06/21 04:52:07;0.00;0.00;0.62;0.00;0.00;0.62;2.63;2.43;;;29.30;37.90;;;;;;2253449;61;20601;-68
2021/06/21 04:54:33;0.00;0.00;0.62;0.00;0.00;0.62;2.80;2.37;;;29.30;38.00;;;;;;2253207;61;20360;-65
2021/06/21 04:57:00;0.00;0.00;0.62;0.00;0.00;0.62;3.20;2.00;;;29.30;38.00;;;;;;2253596;61;20460;-67
2021/06/21 04:59:26;0.00;0.00;0.62;0.00;0.00;0.62;2.00;1.80;;;29.30;38.00;;;;;;2253378;61;20617;-74
2021/06/21 05:01:53;0.00;0.00;0.62;0.00;0.00;0.62;2.37;1.73;;;29.40;38.00;;;;;;2252913;61;20446;-73
2021/06/21 05:04:19;0.00;0.00;0.62;0.00;0.00;0.62;2.20;2.00;;;29.40;38.20;;;;;;2252953;61;20356;-70
2021/06/21 05:06:47;0.00;0.00;0.62;0.00;0.00;0.62;2.23;2.00;;;29.40;38.20;;;;;;2253420;61;20353;-71
2021/06/21 05:09:14;0.00;0.00;0.62;0.00;0.00;0.62;3.40;1.97;;;29.40;38.20;;;;;;2253026;61;20361;-75
2021/06/21 05:11:41;0.00;0.00;0.62;0.00;0.00;0.62;2.20;1.60;;;29.40;38.20;;;;;;2253433;61;20384;-69
2021/06/21 05:14:07;0.00;0.00;0.62;0.00;0.00;0.62;2.10;1.90;;;29.40;38.30;;;;;;2253641;61;20390;-70
2021/06/21 05:16:33;0.00;0.00;0.62;0.00;0.00;0.62;2.33;1.80;;;29.40;38.30;;;;;;2253128;61;20456;-69
2021/06/21 05:19:00;0.00;0.00;0.62;0.00;0.00;0.62;2.13;1.80;;;29.40;38.40;;;;;;2253121;61;20361;-69
2021/06/21 05:21:26;0.00;0.00;0.62;0.00;0.00;0.62;2.80;1.70;;;29.40;38.50;;;;;;2253451;61;20376;-69
2021/06/21 05:23:54;0.00;0.00;0.62;0.00;0.00;0.62;1.80;1.60;;;29.40;38.60;;;;;;2253111;61;20356;-68
2021/06/21 05:26:21;0.00;0.00;0.62;0.00;0.00;0.62;3.07;2.10;;;29.40;38.60;;;;;;2253482;61;20432;-67
2021/06/21 05:28:48;0.00;0.00;0.62;0.00;0.00;0.62;2.20;1.57;;;29.40;38.50;;;;;;2253711;61;20357;-75
2021/06/21 05:31:14;0.00;0.00;0.62;0.00;0.00;0.62;1.70;1.50;;;29.30;38.50;;;;;;2252933;61;20515;-68
2021/06/21 05:33:43;0.00;0.00;0.62;0.00;0.00;0.62;1.70;1.50;;;29.30;38.70;;;;;;2253494;61;20681;-68
2021/06/21 05:36:09;0.00;0.00;0.62;0.00;0.00;0.62;2.23;1.73;;;29.30;38.60;;;;;;2253452;61;20406;-68
2021/06/21 05:38:36;0.00;0.00;0.62;0.00;0.00;0.62;1.90;1.70;;;29.30;38.80;;;;;;2252850;61;20383;-69
2021/06/21 05:41:04;0.00;0.00;0.62;0.00;0.00;0.62;3.60;2.00;;;29.30;38.80;;;;;;2253360;61;20422;-69
2021/06/21 05:43:31;0.00;0.00;0.62;0.00;0.00;0.62;2.73;1.60;;;29.30;38.80;;;;;;2253488;61;20692;-69
2021/06/21 05:45:57;0.00;0.00;0.62;0.00;0.00;0.62;2.10;1.70;;;29.30;38.90;;;;;;2252297;61;20359;-69
2021/06/21 05:48:24;0.00;0.00;0.62;0.00;0.00;0.62;2.30;1.50;;;29.30;38.90;;;;;;2253439;61;20456;-69
2021/06/21 05:50:51;0.00;0.00;0.62;0.00;0.00;0.62;1.67;1.40;;;29.30;38.80;;;;;;2253337;61;20365;-70
2021/06/21 05:53:18;0.00;0.00;0.62;0.00;0.00;0.62;2.40;1.53;;;29.30;38.90;;;;;;2252949;61;20361;-69
2021/06/21 05:55:45;0.00;0.00;0.62;0.00;0.00;0.62;1.60;1.50;;;29.30;38.90;;;;;;2253438;61;20394;-70
2021/06/21 05:58:12;0.00;0.00;0.62;0.00;0.00;0.62;2.20;1.77;;;29.30;38.90;;;;;;2253312;61;20385;-69
2021/06/21 06:00:39;0.00;0.00;0.62;0.00;0.00;0.62;2.17;1.73;;;29.30;38.90;;;;;;2252554;61;20372;-69
2021/06/21 06:03:06;0.00;0.00;0.62;0.00;0.00;0.62;1.90;1.50;;;29.30;39.00;;;;;;2253400;61;20352;-68
2021/06/21 06:05:32;0.00;0.00;0.62;0.00;0.00;0.62;1.90;1.70;;;29.20;38.90;;;;;;2253308;61;20377;-69
2021/06/21 06:07:59;0.00;0.00;0.62;0.00;0.00;0.62;1.83;1.67;;;29.20;38.90;;;;;;2252345;61;20351;-70
2021/06/21 06:10:25;0.00;0.00;0.62;0.00;0.00;0.62;1.90;1.57;;;29.20;39.00;;;;;;2253340;61;20432;-70
2021/06/21 06:12:52;0.00;0.00;0.62;0.00;0.00;0.62;2.67;1.40;;;29.20;39.00;;;;;;2253396;61;20369;-69
2021/06/21 06:15:20;0.00;0.00;0.62;0.00;0.00;0.62;1.60;1.43;;;29.20;39.00;;;;;;2252965;61;20522;-70
2021/06/21 06:17:47;0.00;0.00;0.62;0.00;0.00;0.62;1.80;1.60;;;29.10;39.10;;;;;;2254002;61;20408;-69
2021/06/21 06:20:14;0.00;0.00;0.62;0.00;0.00;0.62;3.10;1.87;;;29.10;39.00;;;;;;2254049;61;20438;-70
2021/06/21 06:22:41;0.00;0.00;0.62;0.00;0.00;0.62;1.50;1.23;;;29.10;39.10;;;;;;2253371;61;20388;-70
2021/06/21 06:25:09;0.00;0.00;0.62;0.00;0.00;0.62;2.00;1.80;;;29.10;39.10;;;;;;2254157;61;20686;-67
2021/06/21 06:27:38;0.00;0.00;0.62;0.00;0.00;0.62;1.80;1.40;;;29.10;39.10;;;;;;2253597;61;20776;-69
2021/06/21 06:30:07;0.00;0.00;0.62;0.00;0.00;0.62;1.50;1.40;;;29.10;39.20;;;;;;2252800;61;20738;-68
2021/06/21 06:32:36;0.00;0.00;0.62;0.00;0.00;0.62;1.93;1.67;;;29.00;39.30;;;;;;2254027;61;20376;-67
2021/06/21 06:35:03;0.00;0.00;0.62;0.00;0.00;0.62;1.70;1.40;;;29.00;39.20;;;;;;2254008;61;20361;-69
2021/06/21 06:37:30;0.00;0.00;0.62;0.00;0.00;0.62;2.07;1.90;;;29.00;39.30;;;;;;2253384;61;20584;-69
2021/06/21 06:39:56;0.00;0.00;0.62;0.00;0.00;0.62;2.30;2.10;;;28.90;39.20;;;;;;2253382;61;20650;-68
2021/06/21 06:42:23;0.00;0.00;0.62;0.00;0.00;0.62;2.63;1.60;;;28.90;39.20;;;;;;2253985;61;20725;-69
2021/06/21 06:44:50;0.00;0.00;0.62;0.00;0.00;0.62;2.10;1.90;;;28.90;39.20;;;;;;2253348;61;20368;-68
2021/06/21 06:47:16;0.00;0.00;0.62;0.00;0.00;0.62;2.63;1.70;;;28.90;39.40;;;;;;2253985;61;20403;-67
2021/06/21 06:49:45;0.00;0.00;0.62;0.00;0.00;0.62;2.33;2.03;;;28.90;39.40;;;;;;2254056;61;20372;-67
2021/06/21 06:52:14;0.00;0.00;0.62;0.00;0.00;0.62;1.97;1.70;;;28.90;39.40;;;;;;2253337;61;20432;-68
2021/06/21 06:57:26;0.00;0.00;0.62;0.00;0.00;0.62;1.97;1.80;;;28.80;39.50;;;;;;2253908;61;20588;-69
2021/06/21 06:59:52;0.00;0.00;0.62;0.00;0.00;0.62;2.73;2.13;;;28.80;39.50;;;;;;2252822;61;20357;-68
2021/06/21 07:02:22;0.00;0.00;0.62;0.00;0.00;0.62;2.67;2.13;;;28.80;39.50;;;;;;2253884;61;20455;-68
2021/06/21 07:04:51;0.00;0.00;0.62;0.00;0.00;0.62;2.37;2.10;;;28.80;39.60;;;;;;2253805;61;20360;-67
2021/06/21 07:07:19;0.00;0.00;0.62;0.00;0.00;0.62;2.47;1.70;;;28.70;39.50;;;;;;2253456;61;20357;-66
2021/06/21 07:09:46;0.00;0.00;0.62;0.00;0.00;0.62;8.17;2.30;;;28.80;39.60;;;;;;2253775;61;20447;-66
2021/06/21 07:12:12;0.00;0.00;0.62;0.00;0.00;0.62;2.20;1.77;;;28.70;39.40;;;;;;2253858;61;20463;-68
2021/06/21 07:14:39;0.00;0.00;0.62;0.00;0.00;0.62;2.77;2.17;;;28.70;39.50;;;;;;2253384;61;20561;-69
2021/06/21 07:17:06;0.00;0.00;0.62;0.00;0.00;0.62;3.13;1.80;;;28.70;39.40;;;;;;2253864;61;20416;-68
2021/06/21 07:19:33;0.00;0.00;0.62;0.00;0.00;0.62;2.40;2.20;;;28.70;39.40;;;;;;2253746;61;20375;-68
2021/06/21 07:22:01;0.00;0.00;0.62;0.00;0.00;0.62;2.53;2.17;;;28.70;39.40;;;;;;2253302;61;20376;-69
2021/06/21 07:24:28;0.00;0.00;0.62;0.00;0.00;0.62;2.80;2.27;;;28.70;39.50;;;;;;2253780;61;20712;-70
2021/06/21 07:26:56;0.00;0.00;0.62;0.00;0.00;0.62;2.10;1.80;;;28.70;39.60;;;;;;2253564;61;20443;-68
2021/06/21 07:29:22;0.00;0.00;0.62;0.00;0.00;0.62;2.47;2.27;;;28.70;39.60;;;;;;2253311;61;20720;-68
2021/06/21 07:31:49;0.00;0.00;0.62;0.00;0.00;0.62;2.43;2.23;;;28.70;39.50;;;;;;2253228;61;20385;-69
2021/06/21 07:34:16;0.00;0.00;0.62;0.00;0.00;0.62;2.73;1.93;;;28.70;39.50;;;;;;2253371;61;20419;-68
2021/06/21 07:36:42;0.00;0.00;0.62;0.00;0.00;0.62;2.20;2.00;;;28.60;39.40;;;;;;2253229;61;20730;-70
2021/06/21 07:39:11;0.00;0.00;0.62;0.00;0.00;0.62;4.90;2.40;;;28.60;39.30;;;;;;2253704;61;20596;-69
2021/06/21 07:41:38;0.00;0.00;0.62;0.00;0.00;0.62;2.80;2.50;;;28.60;39.40;;;;;;2253278;61;20380;-70
2021/06/21 07:44:05;0.00;0.00;0.62;0.00;0.00;0.62;2.90;1.80;;;28.60;39.40;;;;;;2252821;61;20352;-69
2021/06/21 07:46:33;0.00;0.00;0.62;0.00;0.00;0.62;1.97;1.70;;;28.50;39.30;;;;;;2253738;61;20364;-68
2021/06/21 07:49:00;0.00;0.00;0.62;0.00;0.00;0.62;2.83;2.17;;;28.50;39.30;;;;;;2253381;61;20580;-70
2021/06/21 07:51:27;0.00;0.00;0.62;0.00;0.00;0.62;4.70;2.10;;;28.50;39.40;;;;;;2253061;61;20377;-70
2021/06/21 07:53:54;0.00;0.00;0.62;0.00;0.00;0.62;2.30;2.10;;;28.50;39.40;;;;;;2250031;61;20367;-70
2021/06/21 07:56:24;0.00;0.00;0.62;0.00;0.00;0.62;3.53;2.33;;;28.50;39.50;;;;;;2253305;61;20388;-69
2021/06/21 07:58:51;0.00;0.00;0.62;0.00;0.00;0.62;2.60;2.30;;;28.50;39.50;;;;;;2253200;61;20716;-69
2021/06/21 08:01:17;0.00;0.00;0.62;0.00;0.00;0.62;3.33;2.37;;;28.50;39.50;;;;;;2253622;61;20391;-71
2021/06/21 08:03:45;0.00;0.00;0.62;0.00;0.00;0.62;2.60;2.37;;;28.40;39.50;;;;;;2253700;61;20754;-71
2021/06/21 08:06:12;0.00;0.00;0.62;0.00;0.00;0.62;2.77;2.40;;;28.40;39.50;;;;;;2252666;61;20353;-69
2021/06/21 08:08:40;0.00;0.00;0.62;0.00;0.00;0.62;2.97;2.67;;;28.40;39.60;;;;;;2253693;61;20411;-67
2021/06/21 08:11:08;0.00;0.00;0.62;0.00;0.00;0.62;2.70;2.50;;;28.40;39.60;;;;;;2253732;61;20664;-69
2021/06/21 08:13:37;0.00;0.00;0.62;0.00;0.00;0.62;4.17;2.20;;;28.40;39.70;;;;;;2253220;61;20452;-70
2021/06/21 08:16:04;0.00;0.00;0.62;0.00;0.00;0.62;2.67;2.27;;;28.40;39.70;;;;;;2253614;61;20626;-68
2021/06/21 08:18:31;0.00;0.00;0.62;0.00;0.00;0.62;2.80;2.03;;;28.40;39.70;;;;;;2253128;61;20368;-70
2021/06/21 08:20:59;0.00;0.00;0.62;0.00;0.00;0.62;2.93;2.20;;;28.40;39.70;;;;;;2253035;61;20403;-68
2021/06/21 08:23:26;0.00;0.00;0.62;0.00;0.00;0.62;2.27;1.87;;;28.30;39.70;;;;;;2253695;61;20363;-67
2021/06/21 08:25:52;0.00;0.00;0.62;0.00;0.00;0.62;2.13;1.93;;;28.40;39.80;;;;;;2253585;61;20488;-69
2021/06/21 08:28:19;0.00;0.00;0.62;0.00;0.00;0.62;2.60;2.13;;;28.30;39.70;;;;;;2253113;61;20414;-68
2021/06/21 08:30:48;0.00;0.00;0.62;0.00;0.00;0.62;2.37;1.80;;;28.30;39.80;;;;;;2253539;61;20353;-68
2021/06/21 08:33:14;0.00;0.00;0.62;0.00;0.00;0.62;4.00;2.03;;;28.30;39.80;;;;;;2253645;61;20364;-69
2021/06/21 08:35:42;0.00;0.00;0.62;0.00;0.00;0.62;6.20;2.10;;;28.30;39.80;;;;;;2253094;61;20361;-70
2021/06/21 08:38:08;0.00;0.00;0.62;0.00;0.00;0.62;5.10;2.43;;;28.30;40.50;;;;;;2253479;61;20459;-69
2021/06/21 08:40:35;0.00;0.00;0.62;0.00;0.00;0.62;3.03;2.20;;;28.30;39.90;;;;;;2253424;61;20399;-69
2021/06/21 08:43:03;0.00;0.00;0.62;0.00;0.00;0.62;3.13;2.60;;;28.30;39.90;;;;;;2253189;61;20452;-69
2021/06/21 08:45:32;0.00;0.00;0.62;0.00;0.00;0.62;4.37;2.30;;;28.30;39.90;;;;;;2253457;61;20384;-68
2021/06/21 08:48:00;0.00;0.00;0.62;0.00;0.00;0.62;3.10;2.73;;;28.30;39.80;;;;;;2253587;61;20357;-69
2021/06/21 08:50:27;0.00;0.00;0.62;0.00;0.00;0.62;3.23;2.70;;;28.30;40.00;;;;;;2252997;61;20706;-69
2021/06/21 08:52:55;0.00;0.00;0.62;0.00;0.00;0.62;2.77;2.47;;;28.30;40.00;;;;;;2253587;61;20376;-70
2021/06/21 08:55:22;0.00;0.00;0.62;0.00;0.00;0.62;2.67;2.47;;;28.30;40.10;;;;;;2253595;61;20357;-68
2021/06/21 08:57:49;0.00;0.00;0.62;0.00;0.00;0.62;3.20;2.90;;;28.30;40.00;;;;;;2252986;61;20448;-67
2021/06/21 09:00:18;0.00;0.00;0.62;0.00;0.00;0.62;5.53;2.77;;;28.30;40.20;;;;;;2253356;61;20361;-67
2021/06/21 09:02:46;0.00;0.00;0.62;0.00;0.00;0.62;2.43;2.23;;;28.30;40.20;;;;;;2253628;61;20376;-68
2021/06/21 09:05:16;0.00;0.00;0.62;0.00;0.00;0.62;3.97;3.00;;;28.30;40.20;;;;;;2252485;61;20360;-68
2021/06/21 09:07:45;0.00;0.00;0.62;0.00;0.00;0.62;2.83;2.63;;;28.30;40.30;;;;;;2253619;61;20706;-70
2021/06/21 09:10:24;0.00;0.00;0.62;0.00;0.00;0.62;3.40;2.47;;;28.30;40.20;;;;;;2253451;61;20361;-68
2021/06/21 09:13:03;0.00;0.00;0.62;0.00;0.00;0.62;3.30;3.00;;;28.30;40.20;;;;;;2252952;61;20376;-71
2021/06/21 09:15:32;0.00;0.00;0.62;0.00;0.00;0.62;3.73;3.43;;;28.30;40.20;;;;;;2253532;61;20357;-70
2021/06/21 09:18:00;0.00;0.00;0.62;0.00;0.00;0.62;3.73;3.20;;;28.30;40.20;;;;;;2253390;61;20414;-70
2021/06/21 09:20:28;0.00;0.00;0.62;0.00;0.00;0.62;3.30;3.00;;;28.30;40.40;;;;;;2252375;61;20749;-70
2021/06/21 09:23:01;0.00;0.00;0.62;0.00;0.00;0.62;6.60;3.47;;;28.30;40.30;;;;;;2253445;61;20393;-69
2021/06/21 09:25:27;0.00;0.00;0.62;0.00;0.00;0.62;3.83;2.97;;;28.30;40.40;;;;;;2253463;61;20360;-69
2021/06/21 09:27:57;0.00;0.00;0.62;0.00;0.00;0.62;3.37;2.90;;;28.30;40.30;;;;;;2252934;61;20376;-68
2021/06/21 09:30:24;0.00;0.00;0.62;0.00;0.00;0.62;2.67;2.47;;;28.40;40.50;;;;;;2252930;61;20383;-69
2021/06/21 09:32:54;0.00;0.00;0.62;0.00;0.00;0.62;3.50;2.90;;;28.40;40.30;;;;;;2253527;61;20399;-68
2021/06/21 09:35:41;0.00;0.00;0.62;0.00;0.00;0.62;3.50;3.20;;;28.40;40.30;;;;;;2252968;61;20364;-68
2021/06/21 09:38:16;0.00;0.00;0.62;0.00;0.00;0.62;3.80;3.50;;;28.40;40.40;;;;;;2253198;61;20388;-70
2021/06/21 09:40:50;0.00;0.00;0.62;0.00;0.00;0.62;4.13;3.83;;;28.40;40.50;;;;;;2252739;61;20479;-68
2021/06/21 09:43:21;0.00;0.00;0.62;0.00;0.00;0.62;4.03;3.50;;;28.40;40.60;;;;;;2253320;61;20720;-69
2021/06/21 09:46:13;0.00;0.00;0.62;0.00;0.00;0.62;4.10;3.80;;;28.40;40.80;;;;;;2252870;61;20349;-68
2021/06/21 09:48:42;0.00;0.00;0.62;0.00;0.00;0.62;5.43;4.10;;;28.40;41.00;;;;;;2253166;61;20357;-69